PWSweather.com
Personal Weather Stations
Station Observations

KentGB

Lat: 51.355058, Lon: 1.256518

Elevation: 24

Station Type: Davis

http://stnichweather.co.uk

Latest ConditionsUpdated 12:00:02 PM GMT Friday, Jun 23, 2017
Currently Today's Max Today's Min Today's Average
Temperature 73.0°F22.8°C 73.1°F22.8°C 56.2°F13.4°C 62.6°F17.0°C
Dew Point 51.0°F10.6°C 54.5°F12.5°C 48.5°F9.2°C 50.5°F10.3°C
Winds 8.1 mph SW13.0 kmh SW 9.2 mph WSW14.8 kmh WSW - 3.3 mph 5.3 kmh
Wind Gusts 9.2 mph14.8 kmh 12.7 mph20.4 kmh - -
Humidity 46% 77% 46% 65%
Pressure 29.97 in1014.9 mb 30.00 in1015.9 mb 29.94 in1013.9 mb -
Hour Temp Dew Point Humidity Winds Wind Gusts Pressure Precip Precip Rate Daily Precip Total
12:00 PM 73.0°F22.8°C 51.0°F10.6°C 46% 8.1 mph SW13.0 kmh SW 9.2 mph14.8 kmh 29.97 in1014.9 mb - 0.00 in0.0 mm 0.00 in0.0 mm
11:45 AM 73.1°F22.8°C 51.1°F10.6°C 46% 5.8 mph SW9.3 kmh SW 10.4 mph16.7 kmh 29.97 in1014.9 mb - 0.00 in0.0 mm 0.00 in0.0 mm
11:30 AM 72.1°F22.3°C 50.2°F10.1°C 46% 6.9 mph WSW11.1 kmh WSW 9.2 mph14.8 kmh 29.97 in1014.9 mb - 0.00 in0.0 mm 0.00 in0.0 mm
11:15 AM 73.0°F22.8°C 51.0°F10.6°C 46% 6.9 mph SW11.1 kmh SW 11.5 mph18.5 kmh 29.97 in1014.9 mb - 0.00 in0.0 mm 0.00 in0.0 mm
11:00 AM 71.5°F21.9°C 51.3°F10.7°C 49% 3.5 mph WSW5.6 kmh WSW 5.8 mph9.3 kmh 30.00 in1015.9 mb - 0.00 in0.0 mm 0.00 in0.0 mm
10:45 AM 70.5°F21.4°C 50.4°F10.2°C 49% 9.2 mph WSW14.8 kmh WSW 12.7 mph20.4 kmh 30.00 in1015.9 mb - 0.00 in0.0 mm 0.00 in0.0 mm
10:30 AM 70.0°F21.1°C 51.6°F10.9°C 52% 8.1 mph SW13.0 kmh SW 11.5 mph18.5 kmh 30.00 in1015.9 mb - 0.00 in0.0 mm 0.00 in0.0 mm
10:15 AM 69.2°F20.7°C 50.8°F10.4°C 52% 8.1 mph SW13.0 kmh SW 10.4 mph16.7 kmh 30.00 in1015.9 mb - 0.00 in0.0 mm 0.00 in0.0 mm
10:00 AM 68.4°F20.2°C 51.6°F10.9°C 55% 6.9 mph SW11.1 kmh SW 11.5 mph18.5 kmh 30.00 in1015.9 mb - 0.00 in0.0 mm 0.00 in0.0 mm
09:45 AM 68.0°F20.0°C 51.2°F10.7°C 55% 6.9 mph SW11.1 kmh SW 12.7 mph20.4 kmh 30.00 in1015.9 mb - 0.00 in0.0 mm 0.00 in0.0 mm
09:30 AM 68.2°F20.1°C 51.4°F10.8°C 55% 2.3 mph WSW3.7 kmh WSW 6.9 mph11.1 kmh 30.00 in1015.9 mb - 0.00 in0.0 mm 0.00 in0.0 mm
09:15 AM 67.0°F19.4°C 50.3°F10.2°C 55% 4.6 mph WSW7.4 kmh WSW 9.2 mph14.8 kmh 30.00 in1015.9 mb - 0.00 in0.0 mm 0.00 in0.0 mm
09:00 AM 67.1°F19.5°C 48.8°F9.3°C 52% 5.8 mph SW9.3 kmh SW 11.5 mph18.5 kmh 30.00 in1015.9 mb - 0.00 in0.0 mm 0.00 in0.0 mm
08:45 AM 66.7°F19.3°C 48.5°F9.2°C 52% 1.2 mph WSW1.9 kmh WSW 10.4 mph16.7 kmh 30.00 in1015.9 mb - 0.00 in0.0 mm 0.00 in0.0 mm
08:30 AM 65.6°F18.7°C 50.9°F10.5°C 59% 4.6 mph WSW7.4 kmh WSW 11.5 mph18.5 kmh 29.97 in1014.9 mb - 0.00 in0.0 mm 0.00 in0.0 mm
08:15 AM 64.4°F18.0°C 49.8°F9.9°C 59% 6.9 mph SW11.1 kmh SW 9.2 mph14.8 kmh 29.97 in1014.9 mb - 0.00 in0.0 mm 0.00 in0.0 mm
08:00 AM 63.6°F17.6°C 50.8°F10.4°C 63% 5.8 mph SW9.3 kmh SW 9.2 mph14.8 kmh 29.97 in1014.9 mb - 0.00 in0.0 mm 0.00 in0.0 mm
07:45 AM 63.5°F17.5°C 50.7°F10.4°C 63% 2.3 mph WSW3.7 kmh WSW 4.6 mph7.4 kmh 29.97 in1014.9 mb - 0.00 in0.0 mm 0.00 in0.0 mm
07:30 AM 62.6°F17.0°C 53.4°F11.9°C 72% 3.5 mph WSW5.6 kmh WSW 8.1 mph13.0 kmh 29.97 in1014.9 mb - 0.00 in0.0 mm 0.00 in0.0 mm
07:15 AM 61.2°F16.2°C 52.1°F11.2°C 72% 4.6 mph SW7.4 kmh SW 6.9 mph11.1 kmh 29.97 in1014.9 mb - 0.00 in0.0 mm 0.00 in0.0 mm
07:00 AM 60.2°F15.7°C 51.2°F10.7°C 72% 4.6 mph SW7.4 kmh SW 8.1 mph13.0 kmh 29.97 in1014.9 mb - 0.00 in0.0 mm 0.00 in0.0 mm
06:45 AM 59.7°F15.4°C 50.7°F10.4°C 72% 4.6 mph WSW7.4 kmh WSW 10.4 mph16.7 kmh 29.97 in1014.9 mb - 0.00 in0.0 mm 0.00 in0.0 mm
06:30 AM 59.2°F15.1°C 49.8°F9.9°C 71% 2.3 mph SW3.7 kmh SW 5.8 mph9.3 kmh 29.97 in1014.9 mb - 0.00 in0.0 mm 0.00 in0.0 mm
06:15 AM 58.6°F14.8°C 49.2°F9.6°C 71% 5.8 mph SW9.3 kmh SW 10.4 mph16.7 kmh 29.97 in1014.9 mb - 0.00 in0.0 mm 0.00 in0.0 mm
06:00 AM 58.4°F14.7°C 50.8°F10.4°C 76% 2.3 mph WSW3.7 kmh WSW 4.6 mph7.4 kmh 29.97 in1014.9 mb - 0.00 in0.0 mm 0.00 in0.0 mm
05:45 AM 57.8°F14.3°C 50.3°F10.2°C 76% 3.5 mph SW5.6 kmh SW 8.1 mph13.0 kmh 29.97 in1014.9 mb - 0.00 in0.0 mm 0.00 in0.0 mm
05:30 AM 57.6°F14.2°C 50.1°F10.1°C 76% 2.3 mph WSW3.7 kmh WSW 4.6 mph7.4 kmh 29.97 in1014.9 mb - 0.00 in0.0 mm 0.00 in0.0 mm
05:15 AM 57.3°F14.1°C 49.8°F9.9°C 76% 2.3 mph SW3.7 kmh SW 6.9 mph11.1 kmh 29.97 in1014.9 mb - 0.00 in0.0 mm 0.00 in0.0 mm
05:00 AM 57.1°F13.9°C 49.6°F9.8°C 76% 1.2 mph SW1.9 kmh SW 3.5 mph5.6 kmh 29.97 in1014.9 mb - 0.00 in0.0 mm 0.00 in0.0 mm
04:45 AM 56.4°F13.6°C 49.0°F9.4°C 76% 1.2 mph WSW1.9 kmh WSW 3.5 mph5.6 kmh 29.97 in1014.9 mb - 0.00 in0.0 mm 0.00 in0.0 mm
04:30 AM 56.2°F13.4°C 48.7°F9.3°C 76% Calm Calm -- 29.97 in1014.9 mb - 0.00 in0.0 mm 0.00 in0.0 mm
04:15 AM 56.6°F13.7°C 49.1°F9.5°C 76% Calm Calm -- 29.97 in1014.9 mb - 0.00 in0.0 mm 0.00 in0.0 mm
04:00 AM 56.9°F13.8°C 49.8°F9.9°C 77% 1.2 mph W1.9 kmh W 3.5 mph5.6 kmh 29.94 in1013.9 mb - 0.00 in0.0 mm 0.00 in0.0 mm
03:45 AM 56.8°F13.8°C 49.7°F9.8°C 77% 1.2 mph W1.9 kmh W 3.5 mph5.6 kmh 29.94 in1013.9 mb - 0.00 in0.0 mm 0.00 in0.0 mm
03:30 AM 57.0°F13.9°C 49.9°F9.9°C 77% Calm Calm -- 29.94 in1013.9 mb - 0.00 in0.0 mm 0.00 in0.0 mm
03:15 AM 57.5°F14.2°C 50.4°F10.2°C 77% 1.2 mph SW1.9 kmh SW 3.5 mph5.6 kmh 29.94 in1013.9 mb - 0.00 in0.0 mm 0.00 in0.0 mm
03:00 AM 57.5°F14.2°C 48.6°F9.2°C 72% 2.3 mph SW3.7 kmh SW 3.5 mph5.6 kmh 29.94 in1013.9 mb - 0.00 in0.0 mm 0.00 in0.0 mm
02:45 AM 58.1°F14.5°C 49.1°F9.5°C 72% 3.5 mph SW5.6 kmh SW 3.5 mph5.6 kmh 29.94 in1013.9 mb - 0.00 in0.0 mm 0.00 in0.0 mm
02:30 AM 58.7°F14.8°C 49.7°F9.8°C 72% Calm Calm -- 29.94 in1013.9 mb - 0.00 in0.0 mm 0.00 in0.0 mm
02:15 AM 59.4°F15.2°C 50.4°F10.2°C 72% Calm Calm -- 29.94 in1013.9 mb - 0.00 in0.0 mm 0.00 in0.0 mm
02:00 AM 59.6°F15.3°C 50.6°F10.3°C 72% Calm Calm -- 29.94 in1013.9 mb - 0.00 in0.0 mm 0.00 in0.0 mm
01:45 AM 60.0°F15.6°C 51.0°F10.6°C 72% Calm Calm -- 29.94 in1013.9 mb - 0.00 in0.0 mm 0.00 in0.0 mm
01:30 AM 60.3°F15.7°C 51.3°F10.7°C 72% Calm Calm -- 29.94 in1013.9 mb - 0.00 in0.0 mm 0.00 in0.0 mm
01:15 AM 60.8°F16.0°C 51.7°F10.9°C 72% Calm Calm 3.5 mph5.6 kmh 29.94 in1013.9 mb - 0.00 in0.0 mm 0.00 in0.0 mm
01:00 AM 61.0°F16.1°C 50.0°F10.0°C 67% 2.3 mph SW3.7 kmh SW 3.5 mph5.6 kmh 29.94 in1013.9 mb - 0.00 in0.0 mm 0.00 in0.0 mm
12:45 AM 61.7°F16.5°C 50.6°F10.3°C 67% 1.2 mph SW1.9 kmh SW 3.5 mph5.6 kmh 29.94 in1013.9 mb - 0.00 in0.0 mm 0.00 in0.0 mm
12:30 AM 62.3°F16.8°C 49.5°F9.7°C 63% 1.2 mph SW1.9 kmh SW 3.5 mph5.6 kmh 29.94 in1013.9 mb - 0.00 in0.0 mm 0.00 in0.0 mm
12:15 AM 63.1°F17.3°C 50.3°F10.2°C 63% 1.2 mph SW1.9 kmh SW 3.5 mph5.6 kmh 29.94 in1013.9 mb - 0.00 in0.0 mm 0.00 in0.0 mm
12:00 AM 63.7°F17.6°C 54.5°F12.5°C 72% 2.3 mph SW3.7 kmh SW 4.6 mph7.4 kmh 29.94 in1013.9 mb - 0.00 in0.0 mm 0.00 in0.0 mm